To NAV CANADA Home Page Login to a new session Search on AWWS site Disclaimer Vers la page française équivalente Tips FAQ What's new on the site To the Forecasts and Observations / NOTAM section To "File a Flight Plan" website Publications and other links Update of the User's profile FIC Telephone Numbers My Weather Data Folder Route Weather Data Regional Weather Data Local Weather Data To the Forecasts and Observations / NOTAM section
Request Generated 09/16/2021 at 14:55:15 UTC . Weather information available at that time is displayed.


Save this request

METAR/TAF

ESTEVAN REGIONAL/SK    (show WxCam)

METAR CYEN 161400Z AUTO 20007KT 9SM OVC066 09/06 A2974 RMK SLP084=
SPECI CYEN 161314Z AUTO 20003KT 9SM OVC066 08/06 A2975 RMK PRESFR SLP091=
METAR CYEN 161300Z AUTO 24003KT 9SM -RA OVC071 08/05 A2977 RMK SLP090=
SPECI CYEN 161225Z AUTO 29006KT 9SM -RA OVC076 08/05 A2977 RMK SLP097=
METAR CYEN 161200Z AUTO 30005KT 9SM OVC076 08/05 A2976 RMK PRESRR SLP087=

TAF CYEN 161138Z 1612/1624 33008KT P6SM BKN060 OVC090 TEMPO 1612/1615
P6SM -SHRA OVC060
FM161500 26008KT P6SM SCT060 BKN150
BECMG 1618/1620 28018G28KT
FM162100 28018G28KT P6SM FEW080
RMK FCST BASED ON AUTO OBS. NXT FCST BY 161800Z=

MOOSE JAW/AIR VICE MARSHAL C.M. MCEWEN/SK    

METAR CYMJ 161400Z 26009G15KT 15SM SCT120 BKN250 09/02 A2975 RMK AC3CI3 SLP082=
METAR CYMJ 161300Z 23009KT 15SM FEW120 SCT250 05/02 A2975 RMK AC2CI2 SLP083=
METAR CYMJ 161200Z 23008KT 15SM SCT100 BKN250 06/01 A2974 RMK AC4CI2 SLP079=

TAF CYMJ 161130Z 1612/1624 24008KT P6SM BKN120 OVC250
FM161300 26010KT P6SM SCT250
BECMG 1615/1617 28018G28KT
FM162200 28018G28KT P6SM BKN050
RMK NXT FCST BY 161800Z=

REGINA INTL/SK    

METAR CYQR 161400Z 26010G15KT 15SM FEW140 BKN250 08/02 A2973 RMK AC2CI3 SLP083=
METAR CYQR 161300Z 24006KT 15SM FEW170 SCT260 04/00 A2972 RMK AC1CI2 SLP082=
METAR CYQR 161200Z 22008KT 15SM FEW071 SCT130 BKN180 07/01 A2973 RMK AC1AC2AC4 SLP081=

TAF CYQR 161138Z 1612/1712 25008KT P6SM BKN140
BECMG 1617/1619 29020G30KT
FM162100 29022G32KT P6SM BKN060
FM170600 29015G25KT P6SM SCT120
RMK NXT FCST BY 161800Z=

SASKATOON/JOHN G. DIEFENBAKER INTL/SK    

METAR CYXE 161400Z 22013KT 15SM FEW160 05/M01 A2963 RMK AC1 SLP052=
METAR CYXE 161300Z 23011KT 15SM FEW160 03/M01 A2963 RMK AC1 SLP052=
METAR CYXE 161200Z 24012KT 15SM FEW160 04/M01 A2963 RMK AC1 SLP048=

TAF CYXE 161138Z 1612/1712 24012KT P6SM FEW150
FM161500 27020G30KT P6SM BKN060
FM162000 29022G32KT P6SM BKN040 OVC100 TEMPO 1620/1706 P6SM -SHRA
SCT020 OVC040
FM170600 30010KT P6SM SCT060
RMK NXT FCST BY 161800Z=

YORKTON MUNICIPALITY/SK    (show WxCam)

METAR CYQV 161400Z AUTO 24013G21KT 9SM FEW071 09/02 A2965 RMK SLP054 DENSITY ALT 1700FT=
METAR CYQV 161300Z AUTO 22013KT 9SM OVC170 07/02 A2966 RMK SLP056=
METAR CYQV 161200Z AUTO 22009KT 9SM SCT150 07/01 A2966 RMK SLP056=

TAF CYQV 161138Z 1612/1624 24012KT P6SM OVC150
BECMG 1615/1617 25018G28KT
FM162100 27022G32KT P6SM BKN080 TEMPO 1621/1624 P6SM -SHRA OVC050
RMK FCST BASED ON AUTO OBS. NXT FCST BY 161800Z=

BRANDON MUNICIPALITY/MB    

SPECI CYBR 161411Z 00000KT 12SM -RA OVC064 09/08 A2973 RMK SC8 SLP076=
METAR CYBR 161400Z 33003KT 260V350 15SM OVC064 08/08 A2972 RMK SC8 SLP073=
METAR CYBR 161300Z 19006KT 15SM OVC076 08/07 A2973 RMK AC8 SLP076=
SPECI CYBR 161219Z 21006KT 15SM BKN077 OVC110 08/07 A2975 RMK AC6AC2 SLP081=
METAR CYBR 161200Z 24005KT 15SM -SHRA OVC073 08/07 A2975 RMK AC8 SLP082=

TAF CYBR 161138Z 1612/1624 29010KT P6SM SCT080 BKN150 TEMPO 1612/1616
P6SM -SHRA FEW020 BKN040 OVC080
FM161600 26012G22KT P6SM BKN240
FM162000 26015G25KT P6SM SCT240
RMK NXT FCST BY 161800Z=

PORTAGE LA PRAIRIE/SOUTHPORT/MB    

METAR CYPG 161400Z 27004KT 12SM -SHRA FEW065 OVC080 10/08 A2972 RMK SC2AC6 SLP065=
METAR CYPG 161300Z 23006KT 12SM -SHRA SCT060 OVC081 11/08 A2974 RMK SC4AC4 SLP072=
METAR CYPG 161200Z 23006KT 12SM -SHRA SCT060 BKN082 12/07 A2973 RMK SC4AC3 SLP067=

TAF CYPG 161215Z 1612/1624 26006KT P6SM BKN080 TEMPO 1612/1617 P6SM
-SHRA BKN040 OVC060
BECMG 1614/1616 25010KT
RMK NXT FCST BY 161800Z=

WINNIPEG/JAMES ARMSTRONG RICHARDSON INTL/MB    

METAR CYWG 161400Z 27006KT 15SM -SHRA SCT070 OVC100 10/08 A2971 RMK AC3AC5 SLP067=
SPECI CYWG 161322Z 29008KT 15SM -SHRA SCT070 OVC100 11/07 A2972 RMK AC3AC5 CVCTV CLD EMBD SLP068=
METAR CYWG 161300Z 26009KT 15SM SCT070 BKN100 11/07 A2972 RMK AC3AC4 PRESRR SLP068 DENSITY ALT 800FT=
METAR CYWG 161200Z 27007KT 15SM SCT070 BKN100 10/07 A2971 RMK AC4AC3 PRESRR SLP064=

TAF CYWG 161138Z 1612/1712 28008KT P6SM SCT120 BKN180 TEMPO 1612/1615
P6SM -SHRA SCT040 BKN120
FM161500 30010KT P6SM -SHRA SCT015 BKN030 OVC060 TEMPO 1615/1621
5SM -SHRA BR BKN015 OVC030
FM162100 27012G22KT P6SM FEW030 SCT060 BKN150
FM170300 23012KT P6SM FEW200
RMK NXT FCST BY 161800Z=


Your time UTC time
Weather data provided by Environment Canada and NAV CANADA